createdAt,value
2022-11-30T00:02:30.799Z,11.98
2022-11-30T00:07:32.348Z,13.55
2022-11-30T00:12:34.209Z,15.18
2022-11-30T00:17:35.551Z,13.80
2022-11-30T00:22:36.920Z,11.93
2022-11-30T00:27:38.301Z,12.10
2022-11-30T00:32:39.661Z,13.20
2022-11-30T00:37:40.994Z,13.60
2022-11-30T00:42:42.361Z,13.07
2022-11-30T00:47:43.722Z,14.13
2022-11-30T00:52:45.075Z,13.52
2022-11-30T00:57:46.408Z,12.55
2022-11-30T01:02:47.813Z,11.65
2022-11-30T01:07:49.246Z,12.57
2022-11-30T01:12:50.697Z,12.38
2022-11-30T01:17:52.112Z,12.52
2022-11-30T01:22:55.291Z,12.40
2022-11-30T01:27:56.671Z,13.88
2022-11-30T01:33:05.568Z,13.38
2022-11-30T01:38:06.937Z,14.32
2022-11-30T01:43:11.844Z,14.25
2022-11-30T01:48:13.452Z,14.00
2022-11-30T01:53:15.004Z,13.85
2022-11-30T01:58:22.917Z,14.25
2022-11-30T02:03:38.829Z,13.70
2022-11-30T02:08:40.271Z,13.00
2022-11-30T02:13:52.253Z,13.60
2022-11-30T02:19:14.548Z,13.57
2022-11-30T02:24:27.814Z,12.23
2022-11-30T02:29:33.514Z,12.85
2022-11-30T02:34:37.052Z,15.02
2022-11-30T02:39:38.438Z,14.88
2022-11-30T02:44:42.718Z,13.48
2022-11-30T02:49:56.910Z,14.68
2022-11-30T02:55:01.010Z,13.82
2022-11-30T03:00:07.413Z,14.77
2022-11-30T03:05:09.646Z,14.15
2022-11-30T03:10:11.212Z,13.75
2022-11-30T03:15:12.577Z,12.70
2022-11-30T03:20:14.056Z,13.95
2022-11-30T03:25:15.497Z,12.70
2022-11-30T03:30:17.203Z,14.38
2022-11-30T03:35:19.227Z,13.25
2022-11-30T03:40:20.592Z,14.55
2022-11-30T03:45:22.026Z,16.50
2022-11-30T03:50:23.354Z,14.65
2022-11-30T03:55:24.693Z,15.55
2022-11-30T04:00:26.120Z,15.50
2022-11-30T04:05:29.030Z,13.98
2022-11-30T04:10:30.466Z,14.10
2022-11-30T04:15:31.844Z,15.13
2022-11-30T04:20:37.384Z,14.10
2022-11-30T04:25:41.844Z,14.40
2022-11-30T04:30:44.055Z,15.50
2022-11-30T04:35:50.643Z,14.27
2022-11-30T04:40:52.641Z,14.35
2022-11-30T04:45:54.011Z,15.95
2022-11-30T04:51:01.369Z,14.93
2022-11-30T04:56:10.486Z,14.43
2022-11-30T05:01:11.884Z,17.33
2022-11-30T05:06:13.264Z,15.45
2022-11-30T05:11:14.641Z,14.75
2022-11-30T05:16:16.055Z,15.10
2022-11-30T05:21:17.822Z,16.52
2022-11-30T05:26:19.211Z,14.73
2022-11-30T05:31:20.677Z,14.15
2022-11-30T05:36:22.391Z,14.80
2022-11-30T05:41:23.821Z,15.65
2022-11-30T05:46:25.258Z,14.48
2022-11-30T05:51:26.667Z,15.90
2022-11-30T05:56:28.098Z,17.13
2022-11-30T06:01:29.850Z,15.35
2022-11-30T06:06:31.278Z,16.00
2022-11-30T06:11:32.738Z,15.18
2022-11-30T06:16:34.277Z,15.02
2022-11-30T06:21:35.832Z,16.15
2022-11-30T06:26:37.203Z,14.57
2022-11-30T06:31:38.632Z,14.80
2022-11-30T06:36:40.025Z,16.02
2022-11-30T06:41:41.502Z,16.85
2022-11-30T06:46:42.867Z,17.10
2022-11-30T06:51:44.236Z,14.50
2022-11-30T06:56:45.607Z,16.33
2022-11-30T07:01:46.974Z,16.67
2022-11-30T07:06:48.350Z,15.80
2022-11-30T07:11:49.772Z,16.90
2022-11-30T07:16:51.757Z,16.00
2022-11-30T07:21:53.165Z,16.55
2022-11-30T07:26:54.557Z,16.50
2022-11-30T07:31:56.147Z,15.32
2022-11-30T07:36:57.595Z,15.77
2022-11-30T07:41:59.070Z,18.20
2022-11-30T07:47:01.062Z,17.75
2022-11-30T07:52:04.477Z,16.60
2022-11-30T07:57:06.394Z,17.90
2022-11-30T08:02:10.453Z,16.23
2022-11-30T08:07:11.952Z,18.35
2022-11-30T08:12:13.386Z,16.67
2022-11-30T08:17:14.762Z,16.25
2022-11-30T08:22:16.160Z,18.42
2022-11-30T08:27:17.524Z,17.65
2022-11-30T08:32:19.018Z,16.42
2022-11-30T08:37:20.385Z,23.02
2022-11-30T08:42:21.794Z,18.70
2022-11-30T08:47:23.201Z,18.50
2022-11-30T08:52:24.900Z,18.63
2022-11-30T08:57:26.828Z,17.70
2022-11-30T09:02:28.256Z,20.60
2022-11-30T09:07:29.791Z,20.30
2022-11-30T09:12:34.727Z,17.50
2022-11-30T09:17:36.627Z,19.70
2022-11-30T09:22:37.991Z,18.13
2022-11-30T09:27:39.364Z,23.13
2022-11-30T09:32:40.770Z,22.58
2022-11-30T09:37:42.206Z,18.08
2022-11-30T09:42:54.423Z,17.73
2022-11-30T09:48:24.402Z,18.48
2022-11-30T09:53:37.518Z,16.48
2022-11-30T09:58:47.476Z,17.00
2022-11-30T10:03:49.287Z,17.55
2022-11-30T10:09:06.594Z,17.98
2022-11-30T10:14:36.542Z,20.25
2022-11-30T10:20:02.078Z,16.63
2022-11-30T10:25:12.445Z,17.25
2022-11-30T10:30:17.829Z,17.10
2022-11-30T10:35:32.865Z,17.63
2022-11-30T10:41:01.477Z,17.52
2022-11-30T10:46:02.942Z,17.10
2022-11-30T10:51:04.608Z,15.15
2022-11-30T10:56:10.134Z,15.20
2022-11-30T11:01:30.302Z,11.77
2022-11-30T11:06:33.294Z,13.10
2022-11-30T11:11:39.386Z,12.70
2022-11-30T11:17:08.906Z,9.95
2022-11-30T11:22:28.141Z,9.68
2022-11-30T11:27:33.078Z,8.50
2022-11-30T11:32:35.337Z,8.60
2022-11-30T11:37:41.035Z,9.85
2022-11-30T11:42:51.524Z,11.00
2022-11-30T11:48:33.600Z,12.00
2022-11-30T11:53:50.133Z,11.13
2022-11-30T11:59:09.762Z,13.15
2022-11-30T12:04:38.976Z,11.20
2022-11-30T12:09:51.540Z,13.15
2022-11-30T12:14:55.124Z,12.50
2022-11-30T12:20:14.795Z,14.02
2022-11-30T12:25:25.302Z,12.35
2022-11-30T12:30:41.722Z,11.63
2022-11-30T12:35:52.080Z,17.73
2022-11-30T12:41:17.879Z,12.77
2022-11-30T12:46:41.023Z,12.15
2022-11-30T12:51:56.932Z,11.75
2022-11-30T12:57:13.732Z,14.43
2022-11-30T13:02:36.909Z,15.30
2022-11-30T13:08:05.505Z,17.10
2022-11-30T13:13:13.437Z,16.13
2022-11-30T13:18:18.007Z,17.65
2022-11-30T13:23:31.810Z,15.60
2022-11-30T13:28:42.413Z,15.82
2022-11-30T13:33:53.015Z,15.02
2022-11-30T13:39:21.756Z,13.80
2022-11-30T13:44:38.279Z,15.07
2022-11-30T13:49:39.819Z,14.85
2022-11-30T13:54:50.296Z,15.95
2022-11-30T13:59:56.912Z,16.52
2022-11-30T14:05:18.632Z,17.13
2022-11-30T14:10:32.212Z,15.27
2022-11-30T14:15:40.581Z,16.52
2022-11-30T14:20:57.368Z,15.95
2022-11-30T14:26:10.948Z,15.82
2022-11-30T14:31:21.065Z,14.27
2022-11-30T14:36:27.223Z,16.23
2022-11-30T14:41:30.663Z,14.38
2022-11-30T14:46:34.978Z,15.38
2022-11-30T14:51:37.665Z,15.80
2022-11-30T14:56:48.836Z,14.50
2022-11-30T15:01:59.028Z,16.73
2022-11-30T15:07:00.672Z,15.55
2022-11-30T15:12:02.121Z,15.45
2022-11-30T15:17:03.661Z,16.43
2022-11-30T15:22:05.062Z,14.27
2022-11-30T15:27:14.053Z,14.93
2022-11-30T15:32:17.704Z,13.73
2022-11-30T15:37:19.375Z,14.32
2022-11-30T15:42:30.022Z,14.32
2022-11-30T15:47:38.629Z,15.90
2022-11-30T15:52:44.608Z,15.32
2022-11-30T15:58:02.042Z,16.15
2022-11-30T16:03:10.860Z,14.05
2022-11-30T16:08:17.894Z,15.50
2022-11-30T16:13:22.334Z,14.63
2022-11-30T16:18:26.382Z,12.35
2022-11-30T16:23:28.827Z,12.18
2022-11-30T16:28:30.191Z,13.13
2022-11-30T16:33:33.313Z,12.82
2022-11-30T16:38:34.678Z,13.32
2022-11-30T16:43:39.827Z,12.35
2022-11-30T16:48:41.861Z,12.18
2022-11-30T16:53:44.511Z,10.02
2022-11-30T16:58:46.086Z,13.65
2022-11-30T17:03:50.802Z,10.43
2022-11-30T17:08:52.421Z,11.35
2022-11-30T17:13:53.909Z,11.40
2022-11-30T17:18:55.567Z,11.18
2022-11-30T17:23:58.155Z,10.18
2022-11-30T17:28:59.747Z,10.07
2022-11-30T17:34:01.462Z,10.35
2022-11-30T17:39:07.057Z,11.52
2022-11-30T17:44:09.834Z,12.57
2022-11-30T17:49:11.199Z,12.35
2022-11-30T17:54:12.734Z,10.70
2022-11-30T17:59:14.173Z,11.55
2022-11-30T18:04:16.059Z,13.13
2022-11-30T18:09:17.457Z,12.93
2022-11-30T18:14:18.793Z,12.07
2022-11-30T18:19:21.841Z,11.65
2022-11-30T18:24:25.597Z,11.68
2022-11-30T18:29:27.475Z,14.13
2022-11-30T18:34:28.985Z,12.85
2022-11-30T18:39:30.343Z,13.95
2022-11-30T18:44:31.671Z,13.38
2022-11-30T18:49:33.062Z,13.23
2022-11-30T18:54:34.500Z,12.63
2022-11-30T18:59:35.855Z,10.60
2022-11-30T19:04:37.308Z,13.50
2022-11-30T19:09:38.681Z,13.65
2022-11-30T19:14:42.712Z,13.45
2022-11-30T19:19:44.125Z,14.68
2022-11-30T19:24:45.574Z,13.88
2022-11-30T19:29:47.138Z,14.23
2022-11-30T19:34:49.469Z,12.05
2022-11-30T19:39:51.078Z,12.48
2022-11-30T19:44:52.459Z,20.85
2022-11-30T19:49:53.786Z,15.38
2022-11-30T19:54:55.113Z,12.70
2022-11-30T19:59:56.474Z,13.63
2022-11-30T20:04:57.804Z,14.00
2022-11-30T20:09:59.191Z,13.75
2022-11-30T20:15:00.549Z,13.32
2022-11-30T20:20:02.151Z,12.80
2022-11-30T20:25:03.799Z,11.50
2022-11-30T20:30:07.620Z,10.02
2022-11-30T20:35:10.275Z,12.23
2022-11-30T20:40:12.077Z,15.40
2022-11-30T20:45:13.463Z,17.55
2022-11-30T20:50:14.859Z,22.50
2022-11-30T20:55:16.197Z,16.50
2022-11-30T21:00:18.253Z,13.60
2022-11-30T21:05:19.589Z,12.55
2022-11-30T21:10:20.961Z,13.02
2022-11-30T21:15:22.308Z,11.82
2022-11-30T21:20:23.682Z,11.93
2022-11-30T21:25:25.021Z,11.30
2022-11-30T21:30:26.363Z,13.27
2022-11-30T21:35:27.756Z,12.35
2022-11-30T21:40:29.143Z,11.80
2022-11-30T21:45:30.481Z,10.45
2022-11-30T21:50:31.843Z,12.07
2022-11-30T21:55:33.718Z,11.13
2022-11-30T22:00:35.134Z,10.43
2022-11-30T22:05:36.474Z,9.32
2022-11-30T22:10:37.841Z,13.48
2022-11-30T22:15:39.219Z,21.98
2022-11-30T22:20:40.695Z,14.55
2022-11-30T22:25:42.297Z,11.60
2022-11-30T22:30:44.514Z,10.07
2022-11-30T22:35:45.933Z,10.20
2022-11-30T22:40:47.253Z,10.43
2022-11-30T22:45:48.606Z,10.65
2022-11-30T22:50:49.943Z,9.35
2022-11-30T22:55:51.381Z,10.95
2022-11-30T23:00:52.800Z,10.32
2022-11-30T23:05:54.589Z,12.52
2022-11-30T23:11:05.077Z,12.15
2022-11-30T23:16:07.287Z,13.13
2022-11-30T23:21:33.665Z,13.75
2022-11-30T23:26:39.350Z,13.30
2022-11-30T23:31:42.679Z,14.70
2022-11-30T23:36:44.637Z,14.40
2022-11-30T23:41:46.280Z,14.63
2022-11-30T23:46:48.022Z,13.07
2022-11-30T23:51:49.491Z,12.52
2022-11-30T23:56:51.360Z,11.73
